createdAt,value
2017-12-08T00:05:03.794Z,71.30
2017-12-08T00:07:42.124Z,71.20
2017-12-08T00:10:18.331Z,71.10
2017-12-08T00:12:50.835Z,70.80
2017-12-08T00:15:22.464Z,71.00
2017-12-08T00:24:57.736Z,72.90
2017-12-08T00:27:37.577Z,72.90
2017-12-08T00:30:11.220Z,72.80
2017-12-08T00:32:51.963Z,74.70
2017-12-08T01:17:51.107Z,75.50
2017-12-08T01:23:26.597Z,89.80
2017-12-08T01:25:55.912Z,90.40
2017-12-08T01:28:49.846Z,90.90
2017-12-08T01:31:30.535Z,89.60
2017-12-08T01:34:27.033Z,89.60
2017-12-08T01:36:59.627Z,88.40
2017-12-08T01:45:39.051Z,88.10
2017-12-08T01:48:20.733Z,88.60
2017-12-08T01:54:05.536Z,88.30
2017-12-08T02:02:00.421Z,87.60
2017-12-08T02:04:36.930Z,88.70
2017-12-08T02:07:16.499Z,88.70
2017-12-08T02:13:03.136Z,88.20
2017-12-08T02:15:43.729Z,88.00
2017-12-08T02:18:15.865Z,88.40
2017-12-08T02:34:22.892Z,90.20
2017-12-08T02:37:09.541Z,90.40
2017-12-08T02:39:48.812Z,90.60
2017-12-08T02:42:29.164Z,90.70
2017-12-08T02:45:07.739Z,90.70
2017-12-08T02:47:56.500Z,90.80
2017-12-08T02:56:04.585Z,90.30
2017-12-08T03:02:02.847Z,90.40
2017-12-08T03:04:47.160Z,90.40
2017-12-08T03:07:19.362Z,90.70
2017-12-08T03:09:51.011Z,90.90
2017-12-08T03:21:38.072Z,90.90
2017-12-08T03:27:04.942Z,90.50
2017-12-08T03:29:35.957Z,90.30
2017-12-08T03:32:15.949Z,90.30
2017-12-08T03:37:42.865Z,90.50
2017-12-08T03:40:15.660Z,90.40
2017-12-08T03:42:49.167Z,90.70
2017-12-08T03:45:23.808Z,90.80
2017-12-08T03:47:58.655Z,90.80
2017-12-08T03:53:50.712Z,91.30
2017-12-08T03:56:30.259Z,91.20
2017-12-08T06:26:46.390Z,95.50
2017-12-08T06:29:14.856Z,96.20
2017-12-08T06:31:49.048Z,96.40
2017-12-08T06:37:21.603Z,96.90
2017-12-08T06:39:56.728Z,97.40
2017-12-08T06:42:29.600Z,97.80
2017-12-08T06:44:58.813Z,97.90
2017-12-08T06:50:14.767Z,97.60
2017-12-08T06:52:47.037Z,97.10
2017-12-08T06:55:18.266Z,96.80
2017-12-08T06:57:56.725Z,96.50
2017-12-08T07:00:29.376Z,96.50
2017-12-08T07:09:00.893Z,95.30
2017-12-08T07:14:16.823Z,94.90
2017-12-08T07:16:55.241Z,95.00
2017-12-08T07:19:28.087Z,95.00
2017-12-08T07:22:02.020Z,95.10
2017-12-08T07:24:35.767Z,95.00
2017-12-08T07:27:05.681Z,94.90
2017-12-08T07:29:37.610Z,95.40
2017-12-08T07:34:52.409Z,95.80
2017-12-08T07:37:29.868Z,95.80
2017-12-08T07:40:10.529Z,96.00
2017-12-08T07:45:31.512Z,96.20
2017-12-08T07:48:00.920Z,96.00
2017-12-08T07:50:36.168Z,95.70
2017-12-08T07:58:31.189Z,96.00
2017-12-08T08:01:01.635Z,96.00
2017-12-08T08:03:39.912Z,96.00
2017-12-08T08:06:16.440Z,96.10
2017-12-08T08:08:51.161Z,96.30
2017-12-08T08:11:23.502Z,96.10
2017-12-08T08:14:01.449Z,96.00
2017-12-08T08:16:30.671Z,96.10
2017-12-08T08:19:10.450Z,96.10
2017-12-08T08:21:48.350Z,96.40
2017-12-08T08:24:30.881Z,96.30
2017-12-08T08:27:16.252Z,96.30
2017-12-08T08:32:35.616Z,96.70
2017-12-08T08:35:03.211Z,96.50
2017-12-08T08:37:31.705Z,97.10
2017-12-08T08:39:59.656Z,96.80
2017-12-08T08:42:27.469Z,96.80
2017-12-08T08:44:55.921Z,96.50
2017-12-08T08:47:24.163Z,96.50
2017-12-08T08:49:52.959Z,96.40
2017-12-08T08:52:21.288Z,96.40
2017-12-08T08:54:49.806Z,96.10
2017-12-08T08:57:17.560Z,95.60
2017-12-08T08:59:45.250Z,95.80
2017-12-08T09:02:12.871Z,95.70
2017-12-08T09:04:41.496Z,95.70
2017-12-08T09:07:09.278Z,95.70
2017-12-08T09:09:36.933Z,95.90
2017-12-08T09:12:04.463Z,95.10
2017-12-08T09:14:32.127Z,94.90
2017-12-08T09:16:59.666Z,94.60
2017-12-08T09:19:28.451Z,95.10
2017-12-08T09:21:56.024Z,95.20
2017-12-08T09:24:24.360Z,95.40
2017-12-08T09:26:52.819Z,95.40
2017-12-08T09:29:22.358Z,94.80
2017-12-08T09:31:49.891Z,95.00
2017-12-08T09:34:17.473Z,94.80
2017-12-08T09:36:45.767Z,95.00
2017-12-08T09:39:14.190Z,94.90
2017-12-08T09:41:41.732Z,94.80
2017-12-08T09:44:21.297Z,94.70
2017-12-08T09:46:55.128Z,95.20
2017-12-08T09:49:26.054Z,95.20
2017-12-08T09:52:00.156Z,95.60
2017-12-08T09:54:32.890Z,96.10
2017-12-08T09:57:05.712Z,96.40
2017-12-08T09:59:34.245Z,95.80
2017-12-08T10:02:04.453Z,95.20
2017-12-08T10:04:49.184Z,94.00
2017-12-08T10:07:21.088Z,93.90
2017-12-08T10:09:50.355Z,93.90
2017-12-08T10:12:21.208Z,93.80
2017-12-08T10:14:55.489Z,93.80
2017-12-08T10:17:39.544Z,93.70
2017-12-08T10:20:13.584Z,94.10
2017-12-08T10:25:22.433Z,92.80
2017-12-08T10:27:51.783Z,93.80
2017-12-08T10:30:22.883Z,92.80
2017-12-08T10:32:55.928Z,92.80
2017-12-08T10:35:31.373Z,92.70
2017-12-08T10:38:06.685Z,91.40
2017-12-08T10:40:41.803Z,91.30
2017-12-08T10:46:40.803Z,90.60
2017-12-08T10:49:22.317Z,87.10
2017-12-08T10:52:38.310Z,87.00
2017-12-08T11:06:12.864Z,85.80
2017-12-08T11:11:59.693Z,85.60
2017-12-08T11:14:30.640Z,84.30
2017-12-08T11:20:29.206Z,83.80
2017-12-08T11:23:09.861Z,83.70
2017-12-08T11:25:47.848Z,82.60
2017-12-08T11:31:05.552Z,81.70
2017-12-08T11:33:41.441Z,81.70
2017-12-08T11:39:04.329Z,80.60
2017-12-08T11:41:54.587Z,81.10
2017-12-08T11:44:28.701Z,80.30
2017-12-08T11:47:12.890Z,80.30
2017-12-08T11:49:50.970Z,79.40
2017-12-08T11:55:38.379Z,78.70
2017-12-08T11:58:10.733Z,79.00
2017-12-08T12:00:40.959Z,79.30
2017-12-08T12:03:18.277Z,80.10
2017-12-08T12:05:59.999Z,78.90
2017-12-08T12:13:59.771Z,79.10
2017-12-08T12:24:56.240Z,88.00
2017-12-08T12:27:35.312Z,91.30
2017-12-08T12:30:13.478Z,92.90
2017-12-08T12:32:49.307Z,94.20
2017-12-08T12:35:27.353Z,95.10
2017-12-08T12:37:57.285Z,94.10
2017-12-08T12:40:59.064Z,93.70
2017-12-08T12:48:49.060Z,94.60
2017-12-08T12:59:46.724Z,95.30
2017-12-08T13:02:26.123Z,95.50
2017-12-08T13:05:07.966Z,94.90
2017-12-08T13:59:50.782Z,96.60
2017-12-08T14:05:20.656Z,96.40
2017-12-08T15:23:03.738Z,96.40
2017-12-08T15:25:41.287Z,96.30
2017-12-08T15:28:23.336Z,96.50
2017-12-08T16:14:16.006Z,96.20
2017-12-08T16:16:55.551Z,95.70
2017-12-08T16:22:27.181Z,95.80
2017-12-08T16:28:18.468Z,95.70
2017-12-08T16:33:37.448Z,95.80
2017-12-08T16:41:41.185Z,95.20
2017-12-08T16:47:29.131Z,95.10
2017-12-08T16:50:15.072Z,94.90
2017-12-08T17:01:38.064Z,95.20
2017-12-08T17:09:50.266Z,95.00
2017-12-08T17:12:42.516Z,95.10
2017-12-08T17:18:04.315Z,94.90
2017-12-08T17:24:57.516Z,95.40
2017-12-08T17:27:29.881Z,95.50
2017-12-08T17:30:13.366Z,94.40
2017-12-08T17:32:58.995Z,94.70
2017-12-08T17:35:37.041Z,94.60
2017-12-08T17:41:09.291Z,94.60
2017-12-08T17:46:40.573Z,94.60
2017-12-08T17:49:34.494Z,94.60
2017-12-08T17:52:25.534Z,95.00
2017-12-08T17:58:09.757Z,95.30
2017-12-08T18:00:42.324Z,95.20
2017-12-08T18:12:17.319Z,93.40
2017-12-08T18:15:04.404Z,93.40
2017-12-08T18:17:37.560Z,93.70
2017-12-08T18:20:22.902Z,93.70
2017-12-08T18:32:16.503Z,94.00
2017-12-08T18:37:39.368Z,90.30
2017-12-08T18:40:11.086Z,90.20
2017-12-08T18:42:44.382Z,90.10
2017-12-08T18:45:21.349Z,89.40
2017-12-08T18:48:00.002Z,89.30
2017-12-08T18:53:31.757Z,89.70
2017-12-08T18:59:27.541Z,90.00
2017-12-08T19:02:03.220Z,90.00
2017-12-08T19:04:44.465Z,90.40
2017-12-08T19:07:21.046Z,90.00
2017-12-08T19:16:06.223Z,90.80
2017-12-08T19:18:36.491Z,91.60
2017-12-08T19:23:57.248Z,92.10
2017-12-08T19:29:27.932Z,92.30
2017-12-08T19:35:14.220Z,93.20
2017-12-08T19:41:02.798Z,93.20
2017-12-08T19:43:44.836Z,93.60
2017-12-08T19:49:08.995Z,93.50
2017-12-08T19:51:39.633Z,93.80
2017-12-08T20:00:01.524Z,93.80
2017-12-08T20:08:23.630Z,93.40
2017-12-08T20:19:31.498Z,92.70
2017-12-08T20:22:08.630Z,92.60
2017-12-08T20:24:47.726Z,92.80
2017-12-08T20:27:16.129Z,92.70
2017-12-08T20:29:50.303Z,91.90
2017-12-08T20:35:17.295Z,92.10
2017-12-08T20:38:05.296Z,92.20
2017-12-08T20:40:42.397Z,91.80
2017-12-08T20:43:25.956Z,91.10
2017-12-08T20:48:51.683Z,91.60
2017-12-08T20:51:20.241Z,92.90
2017-12-08T20:53:47.862Z,93.10
2017-12-08T20:56:21.812Z,92.70
2017-12-08T20:58:50.198Z,91.10
2017-12-08T21:01:18.553Z,91.60
2017-12-08T21:03:46.153Z,91.60
2017-12-08T21:06:13.696Z,91.30
2017-12-08T21:08:41.335Z,90.80
2017-12-08T21:11:10.220Z,91.10
2017-12-08T21:13:38.408Z,91.70
2017-12-08T21:16:07.362Z,92.60
2017-12-08T21:18:34.992Z,92.60
2017-12-08T21:21:05.900Z,92.90
2017-12-08T21:23:33.507Z,92.90
2017-12-08T21:26:01.060Z,93.00
2017-12-08T21:28:30.671Z,92.90
2017-12-08T21:30:59.072Z,92.00
2017-12-08T21:33:26.699Z,92.00
2017-12-08T21:35:54.666Z,92.60
2017-12-08T21:38:22.325Z,91.60
2017-12-08T21:40:49.936Z,90.80
2017-12-08T21:43:17.825Z,91.90
2017-12-08T21:45:45.799Z,92.60
2017-12-08T21:48:13.632Z,93.10
2017-12-08T21:50:41.249Z,93.30
2017-12-08T21:53:08.843Z,93.30
2017-12-08T21:55:36.668Z,93.00
2017-12-08T21:58:04.476Z,93.30
2017-12-08T22:00:32.132Z,92.60
2017-12-08T22:02:59.683Z,92.90
2017-12-08T22:05:27.634Z,93.20
2017-12-08T22:07:55.498Z,93.00
2017-12-08T22:10:23.406Z,92.30
2017-12-08T22:12:51.815Z,91.60
2017-12-08T22:15:19.519Z,92.40
2017-12-08T22:17:48.137Z,92.90
2017-12-08T22:20:15.974Z,92.90
2017-12-08T22:22:43.606Z,93.20
2017-12-08T22:25:11.684Z,93.10
2017-12-08T22:27:39.408Z,93.20
2017-12-08T22:30:07.019Z,93.30
2017-12-08T22:32:34.779Z,92.90
2017-12-08T22:35:03.533Z,92.90
2017-12-08T22:37:32.305Z,93.10
2017-12-08T22:40:00.034Z,93.00
2017-12-08T22:42:28.367Z,93.40
2017-12-08T22:44:56.291Z,93.40
2017-12-08T22:47:24.092Z,93.60
2017-12-08T22:49:51.696Z,93.80
2017-12-08T22:52:19.418Z,93.70
2017-12-08T22:54:47.307Z,93.60
2017-12-08T22:57:16.119Z,93.70
2017-12-08T22:59:43.785Z,93.70
2017-12-08T23:02:12.166Z,94.10
2017-12-08T23:04:39.824Z,93.70
2017-12-08T23:07:24.135Z,93.80
2017-12-08T23:12:28.675Z,93.30
2017-12-08T23:14:56.271Z,93.40
2017-12-08T23:17:23.858Z,92.90
2017-12-08T23:19:52.600Z,93.10
2017-12-08T23:22:21.012Z,93.30
2017-12-08T23:24:49.387Z,93.30
2017-12-08T23:27:16.981Z,93.20
2017-12-08T23:29:44.519Z,93.50
2017-12-08T23:32:13.040Z,93.50
2017-12-08T23:34:40.964Z,93.40
2017-12-08T23:37:08.751Z,93.20
2017-12-08T23:39:37.113Z,92.00
2017-12-08T23:42:04.919Z,91.80
2017-12-08T23:44:33.311Z,92.40
2017-12-08T23:47:06.586Z,89.90
2017-12-08T23:49:34.884Z,90.50
2017-12-08T23:52:02.783Z,90.50
2017-12-08T23:54:30.383Z,90.70
2017-12-08T23:56:58.102Z,90.30
2017-12-08T23:59:25.660Z,87.80
